Bg Felixstowe — V2BR7 — position and weather

sailwx.info

Track history (hours):
 
Tides and Currents Weather Stations Pressure Air Temp Water Temp Dewpoint Dewpoint Depression Visibility Wind Speed Wind Dir Waves Ship Positions

Bg Felixstowe

Last reported at 2014-Sep-01 09:05 UTC. Time now 2014-Sep-01 18:39 UTC.
Position N 25°46' W 080°10'.

Length 139 m; draft 5.9 m.

Type: Ship (hazmat cat A). MMSI: 304906000.

Date/timePositionNaut miles runAvg speedWind from/ knotsBaromVisibWave heightAir tempDewpointWater temp
2014-Sep-01 09:05N 25°46' W 080°10'2 4.7
2014-Sep-01 08:33N 25°46' W 080°07'1111.0
2014-Sep-01 07:33N 25°37' W 079°60'  
2014-Aug-27 00:33N 25°33' W 079°60'1413.8
2014-Aug-26 23:33N 25°46' W 080°06'4 1.3
2014-Aug-26 20:27N 25°46' W 080°10'0 0.0
2014-Aug-26 17:26N 25°46' W 080°10'0 0.0
2014-Aug-26 16:22N 25°46' W 080°10'0 0.0
2014-Aug-26 15:25N 25°46' W 080°10'0 0.0
2014-Aug-26 13:15N 25°46' W 080°10'0 0.0
2014-Aug-26 12:21N 25°46' W 080°10'0 0.0
2014-Aug-26 11:29N 25°46' W 080°10'0 0.0
2014-Aug-26 10:29N 25°46' W 080°10'0 0.0
2014-Aug-26 09:31N 25°46' W 080°10'0 0.0
2014-Aug-26 08:25N 25°46' W 080°10'0 0.0
2014-Aug-26 07:18N 25°46' W 080°10'0 0.0
2014-Aug-26 06:30N 25°46' W 080°10'0 0.0
2014-Aug-26 05:24N 25°46' W 080°10'0 0.0
2014-Aug-26 04:29N 25°46' W 080°10'0 0.0
2014-Aug-26 03:29N 25°46' W 080°10'0 0.0
2014-Aug-26 02:16N 25°46' W 080°10'0 0.0
2014-Aug-26 01:10N 25°46' W 080°10'0 0.0
2014-Aug-25 23:12N 25°46' W 080°10'0 0.0
2014-Aug-25 22:27N 25°46' W 080°10'0 0.0
2014-Aug-25 21:32N 25°46' W 080°10'0 0.0
2014-Aug-25 20:23N 25°46' W 080°10'0 0.0
2014-Aug-25 17:18N 25°46' W 080°10'0 0.0
2014-Aug-25 16:30N 25°46' W 080°10'0 0.0
2014-Aug-25 15:24N 25°46' W 080°10'0 0.0
2014-Aug-25 14:29N 25°46' W 080°10'0 0.0
2014-Aug-25 12:31N 25°46' W 080°10'0 0.0
2014-Aug-25 11:13N 25°46' W 080°10'0 0.0
2014-Aug-25 10:18N 25°46' W 080°10'0 0.0
2014-Aug-25 09:30N 25°46' W 080°10'0 0.0
2014-Aug-25 08:24N 25°46' W 080°10'0 0.0
2014-Aug-25 07:29N 25°46' W 080°10'0 0.0
2014-Aug-25 06:26N 25°46' W 080°10'0 0.0
2014-Aug-25 05:31N 25°46' W 080°10'0 0.0
2014-Aug-25 04:28N 25°46' W 080°10'0 0.0
2014-Aug-25 03:34N 25°46' W 080°10'0 0.0
2014-Aug-25 02:30N 25°46' W 080°10'0 0.0
2014-Aug-25 01:24N 25°46' W 080°10'0 0.0
2014-Aug-25 00:29N 25°46' W 080°10'0 0.0
2014-Aug-24 23:14N 25°46' W 080°10'0 0.0
2014-Aug-24 22:31N 25°46' W 080°10'0 0.0
2014-Aug-24 21:10N 25°46' W 080°10'0 0.0
2014-Aug-24 20:33N 25°46' W 080°10'0 0.0
2014-Aug-24 19:32N 25°46' W 080°10'6 5.9
2014-Aug-24 18:33N 25°47' W 080°04'1 1.4
2014-Aug-24 17:33N 25°48' W 080°05'1 0.6
2014-Aug-24 16:33N 25°47' W 080°05'1 0.9
2014-Aug-24 15:33N 25°46' W 080°05'0 0.3
2014-Aug-24 14:33N 25°46' W 080°04'1312.5
2014-Aug-24 13:32N 25°34' W 079°60'  
Track history (hours):
 
Tides and Currents Weather Stations Pressure Air Temp Water Temp Dewpoint Dewpoint Depression Visibility Wind Speed Wind Dir Waves Ship Positions

Bg Felixstowe

Last reported at 2014-Sep-01 09:05 UTC. Time now 2014-Sep-01 18:39 UTC.
Position N 25°46' W 080°10'.

Length 139 m; draft 5.9 m.

Type: Ship (hazmat cat A). MMSI: 304906000.

Date/timePositionNaut miles runAvg speedWind from/ knotsBaromVisibWave heightAir tempDewpointWater temp
2014-Sep-01 09:05N 25°46' W 080°10'2 4.7
2014-Sep-01 08:33N 25°46' W 080°07'1111.0
2014-Sep-01 07:33N 25°37' W 079°60'  
2014-Aug-27 00:33N 25°33' W 079°60'1413.8
2014-Aug-26 23:33N 25°46' W 080°06'4 1.3
2014-Aug-26 20:27N 25°46' W 080°10'0 0.0
2014-Aug-26 17:26N 25°46' W 080°10'0 0.0
2014-Aug-26 16:22N 25°46' W 080°10'0 0.0
2014-Aug-26 15:25N 25°46' W 080°10'0 0.0
2014-Aug-26 13:15N 25°46' W 080°10'0 0.0
2014-Aug-26 12:21N 25°46' W 080°10'0 0.0
2014-Aug-26 11:29N 25°46' W 080°10'0 0.0
2014-Aug-26 10:29N 25°46' W 080°10'0 0.0
2014-Aug-26 09:31N 25°46' W 080°10'0 0.0
2014-Aug-26 08:25N 25°46' W 080°10'0 0.0
2014-Aug-26 07:18N 25°46' W 080°10'0 0.0
2014-Aug-26 06:30N 25°46' W 080°10'0 0.0
2014-Aug-26 05:24N 25°46' W 080°10'0 0.0
2014-Aug-26 04:29N 25°46' W 080°10'0 0.0
2014-Aug-26 03:29N 25°46' W 080°10'0 0.0
2014-Aug-26 02:16N 25°46' W 080°10'0 0.0
2014-Aug-26 01:10N 25°46' W 080°10'0 0.0
2014-Aug-25 23:12N 25°46' W 080°10'0 0.0
2014-Aug-25 22:27N 25°46' W 080°10'0 0.0
2014-Aug-25 21:32N 25°46' W 080°10'0 0.0
2014-Aug-25 20:23N 25°46' W 080°10'0 0.0
2014-Aug-25 17:18N 25°46' W 080°10'0 0.0
2014-Aug-25 16:30N 25°46' W 080°10'0 0.0
2014-Aug-25 15:24N 25°46' W 080°10'0 0.0
2014-Aug-25 14:29N 25°46' W 080°10'0 0.0
2014-Aug-25 12:31N 25°46' W 080°10'0 0.0
2014-Aug-25 11:13N 25°46' W 080°10'0 0.0
2014-Aug-25 10:18N 25°46' W 080°10'0 0.0
2014-Aug-25 09:30N 25°46' W 080°10'0 0.0
2014-Aug-25 08:24N 25°46' W 080°10'0 0.0
2014-Aug-25 07:29N 25°46' W 080°10'0 0.0
2014-Aug-25 06:26N 25°46' W 080°10'0 0.0
2014-Aug-25 05:31N 25°46' W 080°10'0 0.0
2014-Aug-25 04:28N 25°46' W 080°10'0 0.0
2014-Aug-25 03:34N 25°46' W 080°10'0 0.0
2014-Aug-25 02:30N 25°46' W 080°10'0 0.0
2014-Aug-25 01:24N 25°46' W 080°10'0 0.0
2014-Aug-25 00:29N 25°46' W 080°10'0 0.0
2014-Aug-24 23:14N 25°46' W 080°10'0 0.0
2014-Aug-24 22:31N 25°46' W 080°10'0 0.0
2014-Aug-24 21:10N 25°46' W 080°10'0 0.0
2014-Aug-24 20:33N 25°46' W 080°10'0 0.0
2014-Aug-24 19:32N 25°46' W 080°10'6 5.9
2014-Aug-24 18:33N 25°47' W 080°04'1 1.4
2014-Aug-24 17:33N 25°48' W 080°05'1 0.6
2014-Aug-24 16:33N 25°47' W 080°05'1 0.9
2014-Aug-24 15:33N 25°46' W 080°05'0 0.3
2014-Aug-24 14:33N 25°46' W 080°04'1312.5
2014-Aug-24 13:32N 25°34' W 079°60'  

Dump ship's entire track history